sensor_id;sensor_type;location;lat;lon;timestamp;P1;durP1;ratioP1;P2;durP2;ratioP2
54125;SDS011;40360;52.992;6.796;2023-08-21T00:01:10;5.10;;;3.65;;
54125;SDS011;40360;52.992;6.796;2023-08-21T00:03:35;12.38;;;3.63;;
54125;SDS011;40360;52.992;6.796;2023-08-21T00:06:01;7.85;;;3.20;;
54125;SDS011;40360;52.992;6.796;2023-08-21T00:08:27;14.68;;;4.20;;
54125;SDS011;40360;52.992;6.796;2023-08-21T00:10:52;10.10;;;3.90;;
54125;SDS011;40360;52.992;6.796;2023-08-21T00:13:18;12.73;;;3.35;;
54125;SDS011;40360;52.992;6.796;2023-08-21T00:15:45;7.32;;;3.55;;
54125;SDS011;40360;52.992;6.796;2023-08-21T00:18:10;6.45;;;2.53;;
54125;SDS011;40360;52.992;6.796;2023-08-21T00:20:36;6.75;;;3.00;;
54125;SDS011;40360;52.992;6.796;2023-08-21T00:23:02;3.90;;;2.05;;
54125;SDS011;40360;52.992;6.796;2023-08-21T00:25:27;5.28;;;2.72;;
54125;SDS011;40360;52.992;6.796;2023-08-21T00:27:53;4.85;;;2.35;;
54125;SDS011;40360;52.992;6.796;2023-08-21T00:30:19;5.78;;;3.03;;
54125;SDS011;40360;52.992;6.796;2023-08-21T00:32:45;4.18;;;2.00;;
54125;SDS011;40360;52.992;6.796;2023-08-21T00:35:11;7.03;;;3.28;;
54125;SDS011;40360;52.992;6.796;2023-08-21T00:37:36;4.55;;;2.15;;
54125;SDS011;40360;52.992;6.796;2023-08-21T00:40:02;9.30;;;2.30;;
54125;SDS011;40360;52.992;6.796;2023-08-21T00:42:28;8.52;;;1.98;;
54125;SDS011;40360;52.992;6.796;2023-08-21T00:44:54;5.53;;;2.20;;
54125;SDS011;40360;52.992;6.796;2023-08-21T00:47:21;9.60;;;2.60;;
54125;SDS011;40360;52.992;6.796;2023-08-21T00:49:46;6.18;;;3.00;;
54125;SDS011;40360;52.992;6.796;2023-08-21T00:52:12;9.38;;;3.75;;
54125;SDS011;40360;52.992;6.796;2023-08-21T00:54:40;7.22;;;3.45;;
54125;SDS011;40360;52.992;6.796;2023-08-21T00:57:07;6.72;;;3.13;;
54125;SDS011;40360;52.992;6.796;2023-08-21T00:59:34;6.57;;;3.03;;
54125;SDS011;40360;52.992;6.796;2023-08-21T01:02:00;8.10;;;3.45;;
54125;SDS011;40360;52.992;6.796;2023-08-21T01:04:26;14.70;;;4.13;;
54125;SDS011;40360;52.992;6.796;2023-08-21T01:06:52;6.05;;;3.00;;
54125;SDS011;40360;52.992;6.796;2023-08-21T01:09:24;6.70;;;2.95;;
54125;SDS011;40360;52.992;6.796;2023-08-21T01:15:11;6.80;;;2.50;;
54125;SDS011;40360;52.992;6.796;2023-08-21T01:17:39;5.43;;;2.10;;
54125;SDS011;40360;52.992;6.796;2023-08-21T01:20:07;6.15;;;2.70;;
54125;SDS011;40360;52.992;6.796;2023-08-21T01:22:39;5.72;;;2.08;;
54125;SDS011;40360;52.992;6.796;2023-08-21T01:25:06;5.13;;;2.08;;
54125;SDS011;40360;52.992;6.796;2023-08-21T01:27:34;8.27;;;2.67;;
54125;SDS011;40360;52.992;6.796;2023-08-21T01:30:04;7.15;;;2.30;;
54125;SDS011;40360;52.992;6.796;2023-08-21T01:35:05;9.20;;;2.60;;
54125;SDS011;40360;52.992;6.796;2023-08-21T01:37:32;6.88;;;2.17;;
54125;SDS011;40360;52.992;6.796;2023-08-21T01:39:59;5.18;;;2.30;;
54125;SDS011;40360;52.992;6.796;2023-08-21T01:42:24;9.60;;;3.17;;
54125;SDS011;40360;52.992;6.796;2023-08-21T01:44:50;7.00;;;3.10;;
54125;SDS011;40360;52.992;6.796;2023-08-21T01:47:16;6.03;;;2.42;;
54125;SDS011;40360;52.992;6.796;2023-08-21T01:49:42;6.05;;;2.30;;
54125;SDS011;40360;52.992;6.796;2023-08-21T01:52:08;6.85;;;2.17;;
54125;SDS011;40360;52.992;6.796;2023-08-21T01:54:35;5.30;;;2.70;;
54125;SDS011;40360;52.992;6.796;2023-08-21T01:57:01;8.27;;;2.85;;
54125;SDS011;40360;52.992;6.796;2023-08-21T01:59:26;8.55;;;2.92;;
54125;SDS011;40360;52.992;6.796;2023-08-21T02:01:55;8.35;;;3.53;;
54125;SDS011;40360;52.992;6.796;2023-08-21T02:04:23;6.65;;;3.13;;
54125;SDS011;40360;52.992;6.796;2023-08-21T02:06:49;10.02;;;3.17;;
54125;SDS011;40360;52.992;6.796;2023-08-21T02:09:15;8.75;;;3.10;;
54125;SDS011;40360;52.992;6.796;2023-08-21T02:11:40;7.57;;;3.08;;
54125;SDS011;40360;52.992;6.796;2023-08-21T02:14:06;7.75;;;2.95;;
54125;SDS011;40360;52.992;6.796;2023-08-21T02:16:32;6.80;;;3.15;;
54125;SDS011;40360;52.992;6.796;2023-08-21T02:18:58;7.47;;;3.70;;
54125;SDS011;40360;52.992;6.796;2023-08-21T02:21:23;7.97;;;3.55;;
54125;SDS011;40360;52.992;6.796;2023-08-21T02:23:50;6.03;;;2.90;;
54125;SDS011;40360;52.992;6.796;2023-08-21T02:26:16;6.95;;;3.17;;
54125;SDS011;40360;52.992;6.796;2023-08-21T02:28:42;8.95;;;2.65;;
54125;SDS011;40360;52.992;6.796;2023-08-21T02:31:12;4.70;;;2.63;;
54125;SDS011;40360;52.992;6.796;2023-08-21T02:34:20;6.70;;;2.63;;
54125;SDS011;40360;52.992;6.796;2023-08-21T02:36:26;6.22;;;3.00;;
54125;SDS011;40360;52.992;6.796;2023-08-21T02:38:52;8.75;;;3.03;;
54125;SDS011;40360;52.992;6.796;2023-08-21T02:41:18;10.02;;;2.83;;
54125;SDS011;40360;52.992;6.796;2023-08-21T02:43:44;7.70;;;2.70;;
54125;SDS011;40360;52.992;6.796;2023-08-21T02:46:09;6.28;;;3.20;;
54125;SDS011;40360;52.992;6.796;2023-08-21T02:48:35;7.05;;;3.08;;
54125;SDS011;40360;52.992;6.796;2023-08-21T02:51:01;7.35;;;3.13;;
54125;SDS011;40360;52.992;6.796;2023-08-21T02:53:28;3.25;;;1.75;;
54125;SDS011;40360;52.992;6.796;2023-08-21T02:55:53;3.72;;;2.08;;
54125;SDS011;40360;52.992;6.796;2023-08-21T02:58:19;6.80;;;2.53;;
54125;SDS011;40360;52.992;6.796;2023-08-21T03:00:45;4.70;;;2.38;;
54125;SDS011;40360;52.992;6.796;2023-08-21T03:03:10;5.05;;;2.20;;
54125;SDS011;40360;52.992;6.796;2023-08-21T03:05:36;2.90;;;1.70;;
54125;SDS011;40360;52.992;6.796;2023-08-21T03:08:02;6.47;;;2.50;;
54125;SDS011;40360;52.992;6.796;2023-08-21T03:10:28;5.50;;;3.00;;
54125;SDS011;40360;52.992;6.796;2023-08-21T03:12:58;4.53;;;2.22;;
54125;SDS011;40360;52.992;6.796;2023-08-21T03:15:24;7.53;;;3.17;;
54125;SDS011;40360;52.992;6.796;2023-08-21T03:17:50;7.43;;;2.97;;
54125;SDS011;40360;52.992;6.796;2023-08-21T03:20:16;5.78;;;2.70;;
54125;SDS011;40360;52.992;6.796;2023-08-21T03:22:43;7.18;;;2.65;;
54125;SDS011;40360;52.992;6.796;2023-08-21T03:25:08;5.45;;;2.45;;
54125;SDS011;40360;52.992;6.796;2023-08-21T03:27:35;7.65;;;2.30;;
54125;SDS011;40360;52.992;6.796;2023-08-21T03:30:05;6.45;;;2.50;;
54125;SDS011;40360;52.992;6.796;2023-08-21T03:32:32;5.78;;;2.30;;
54125;SDS011;40360;52.992;6.796;2023-08-21T03:34:58;5.25;;;2.70;;
54125;SDS011;40360;52.992;6.796;2023-08-21T03:37:24;7.07;;;2.22;;
54125;SDS011;40360;52.992;6.796;2023-08-21T03:39:50;5.97;;;3.10;;
54125;SDS011;40360;52.992;6.796;2023-08-21T03:42:16;6.25;;;2.03;;
54125;SDS011;40360;52.992;6.796;2023-08-21T03:44:42;5.30;;;2.35;;
54125;SDS011;40360;52.992;6.796;2023-08-21T03:47:08;8.10;;;2.13;;
54125;SDS011;40360;52.992;6.796;2023-08-21T03:49:34;6.05;;;1.90;;
54125;SDS011;40360;52.992;6.796;2023-08-21T03:52:01;3.78;;;1.30;;
54125;SDS011;40360;52.992;6.796;2023-08-21T03:54:26;4.85;;;1.70;;
54125;SDS011;40360;52.992;6.796;2023-08-21T03:56:52;5.00;;;1.60;;
54125;SDS011;40360;52.992;6.796;2023-08-21T03:59:18;4.32;;;1.98;;
54125;SDS011;40360;52.992;6.796;2023-08-21T04:01:44;7.53;;;2.47;;
54125;SDS011;40360;52.992;6.796;2023-08-21T04:04:10;4.63;;;1.90;;
54125;SDS011;40360;52.992;6.796;2023-08-21T04:06:36;4.30;;;1.77;;
54125;SDS011;40360;52.992;6.796;2023-08-21T04:09:01;8.55;;;2.30;;
54125;SDS011;40360;52.992;6.796;2023-08-21T04:11:31;11.25;;;2.17;;
54125;SDS011;40360;52.992;6.796;2023-08-21T04:13:58;4.40;;;2.13;;
54125;SDS011;40360;52.992;6.796;2023-08-21T04:16:24;12.07;;;3.28;;
54125;SDS011;40360;52.992;6.796;2023-08-21T04:18:50;12.15;;;3.85;;
54125;SDS011;40360;52.992;6.796;2023-08-21T04:21:15;6.25;;;3.35;;
54125;SDS011;40360;52.992;6.796;2023-08-21T04:23:41;6.07;;;2.17;;
54125;SDS011;40360;52.992;6.796;2023-08-21T04:26:07;6.55;;;2.80;;
54125;SDS011;40360;52.992;6.796;2023-08-21T04:28:33;8.90;;;3.05;;
54125;SDS011;40360;52.992;6.796;2023-08-21T04:30:59;5.45;;;2.00;;
54125;SDS011;40360;52.992;6.796;2023-08-21T04:33:25;4.75;;;2.40;;
54125;SDS011;40360;52.992;6.796;2023-08-21T04:35:53;5.10;;;2.05;;
54125;SDS011;40360;52.992;6.796;2023-08-21T04:38:19;5.75;;;2.40;;
54125;SDS011;40360;52.992;6.796;2023-08-21T04:40:44;4.13;;;1.85;;
54125;SDS011;40360;52.992;6.796;2023-08-21T04:43:10;4.47;;;1.98;;
54125;SDS011;40360;52.992;6.796;2023-08-21T04:45:36;3.97;;;2.08;;
54125;SDS011;40360;52.992;6.796;2023-08-21T04:48:03;4.90;;;2.15;;
54125;SDS011;40360;52.992;6.796;2023-08-21T04:50:32;6.00;;;2.30;;
54125;SDS011;40360;52.992;6.796;2023-08-21T04:52:58;5.57;;;2.70;;
54125;SDS011;40360;52.992;6.796;2023-08-21T04:55:24;5.43;;;2.47;;
54125;SDS011;40360;52.992;6.796;2023-08-21T04:57:49;11.52;;;3.55;;
54125;SDS011;40360;52.992;6.796;2023-08-21T05:00:15;4.93;;;2.67;;
54125;SDS011;40360;52.992;6.796;2023-08-21T05:02:41;4.47;;;3.00;;
54125;SDS011;40360;52.992;6.796;2023-08-21T05:05:07;8.00;;;2.72;;
54125;SDS011;40360;52.992;6.796;2023-08-21T05:07:34;5.80;;;2.60;;
54125;SDS011;40360;52.992;6.796;2023-08-21T05:10:00;5.93;;;3.10;;
54125;SDS011;40360;52.992;6.796;2023-08-21T05:12:26;4.65;;;2.90;;
54125;SDS011;40360;52.992;6.796;2023-08-21T05:14:51;8.25;;;2.50;;
54125;SDS011;40360;52.992;6.796;2023-08-21T05:17:17;5.13;;;2.40;;
54125;SDS011;40360;52.992;6.796;2023-08-21T05:19:43;6.82;;;2.60;;
54125;SDS011;40360;52.992;6.796;2023-08-21T05:22:08;5.72;;;3.17;;
54125;SDS011;40360;52.992;6.796;2023-08-21T05:24:34;12.45;;;5.05;;
54125;SDS011;40360;52.992;6.796;2023-08-21T05:27:00;8.45;;;3.13;;
54125;SDS011;40360;52.992;6.796;2023-08-21T05:29:26;3.90;;;2.08;;
54125;SDS011;40360;52.992;6.796;2023-08-21T05:31:51;3.70;;;1.83;;
54125;SDS011;40360;52.992;6.796;2023-08-21T05:34:17;7.53;;;2.72;;
54125;SDS011;40360;52.992;6.796;2023-08-21T05:36:43;4.40;;;2.30;;
54125;SDS011;40360;52.992;6.796;2023-08-21T05:39:09;5.70;;;3.00;;
54125;SDS011;40360;52.992;6.796;2023-08-21T05:41:34;6.40;;;2.40;;
54125;SDS011;40360;52.992;6.796;2023-08-21T05:44:00;5.45;;;2.53;;
54125;SDS011;40360;52.992;6.796;2023-08-21T06:02:30;4.32;;;3.30;;
54125;SDS011;40360;52.992;6.796;2023-08-21T06:04:55;6.43;;;3.30;;
54125;SDS011;40360;52.992;6.796;2023-08-21T06:07:21;6.18;;;2.92;;
54125;SDS011;40360;52.992;6.796;2023-08-21T06:09:46;8.30;;;3.17;;
54125;SDS011;40360;52.992;6.796;2023-08-21T06:12:13;8.50;;;4.40;;
54125;SDS011;40360;52.992;6.796;2023-08-21T06:14:39;7.63;;;3.40;;
54125;SDS011;40360;52.992;6.796;2023-08-21T06:17:04;5.00;;;3.60;;
54125;SDS011;40360;52.992;6.796;2023-08-21T06:19:30;7.97;;;3.38;;
54125;SDS011;40360;52.992;6.796;2023-08-21T06:21:56;8.00;;;3.20;;
54125;SDS011;40360;52.992;6.796;2023-08-21T06:24:22;7.38;;;3.58;;
54125;SDS011;40360;52.992;6.796;2023-08-21T06:26:49;9.50;;;3.38;;
54125;SDS011;40360;52.992;6.796;2023-08-21T06:29:15;14.23;;;4.07;;
54125;SDS011;40360;52.992;6.796;2023-08-21T06:31:41;8.07;;;3.65;;
54125;SDS011;40360;52.992;6.796;2023-08-21T06:34:07;6.55;;;3.20;;
54125;SDS011;40360;52.992;6.796;2023-08-21T06:36:33;6.75;;;3.10;;
54125;SDS011;40360;52.992;6.796;2023-08-21T06:38:59;8.60;;;3.10;;
54125;SDS011;40360;52.992;6.796;2023-08-21T06:41:24;8.80;;;3.42;;
54125;SDS011;40360;52.992;6.796;2023-08-21T06:43:50;6.40;;;2.85;;
54125;SDS011;40360;52.992;6.796;2023-08-21T06:46:16;9.20;;;3.60;;
54125;SDS011;40360;52.992;6.796;2023-08-21T06:48:42;8.93;;;3.28;;
54125;SDS011;40360;52.992;6.796;2023-08-21T06:51:08;9.00;;;2.60;;
54125;SDS011;40360;52.992;6.796;2023-08-21T06:53:34;7.93;;;2.45;;
54125;SDS011;40360;52.992;6.796;2023-08-21T06:56:00;6.85;;;2.38;;
54125;SDS011;40360;52.992;6.796;2023-08-21T06:58:26;7.72;;;2.28;;
54125;SDS011;40360;52.992;6.796;2023-08-21T07:00:55;7.97;;;2.13;;
54125;SDS011;40360;52.992;6.796;2023-08-21T07:03:21;8.13;;;2.85;;
54125;SDS011;40360;52.992;6.796;2023-08-21T07:05:54;4.90;;;2.20;;
54125;SDS011;40360;52.992;6.796;2023-08-21T07:08:21;7.18;;;2.72;;
54125;SDS011;40360;52.992;6.796;2023-08-21T07:10:47;8.25;;;2.22;;
54125;SDS011;40360;52.992;6.796;2023-08-21T07:13:13;4.68;;;2.08;;
54125;SDS011;40360;52.992;6.796;2023-08-21T07:15:39;11.32;;;2.67;;
54125;SDS011;40360;52.992;6.796;2023-08-21T07:18:04;6.07;;;2.90;;
54125;SDS011;40360;52.992;6.796;2023-08-21T07:20:30;4.25;;;2.03;;
54125;SDS011;40360;52.992;6.796;2023-08-21T07:22:56;6.10;;;2.53;;
54125;SDS011;40360;52.992;6.796;2023-08-21T07:25:21;5.53;;;1.92;;
54125;SDS011;40360;52.992;6.796;2023-08-21T07:27:47;6.95;;;1.75;;
54125;SDS011;40360;52.992;6.796;2023-08-21T07:30:13;6.00;;;1.98;;
54125;SDS011;40360;52.992;6.796;2023-08-21T07:32:41;8.60;;;2.45;;
54125;SDS011;40360;52.992;6.796;2023-08-21T07:35:07;3.92;;;1.77;;
54125;SDS011;40360;52.992;6.796;2023-08-21T07:37:33;6.55;;;1.88;;
54125;SDS011;40360;52.992;6.796;2023-08-21T07:39:58;6.90;;;1.67;;
54125;SDS011;40360;52.992;6.796;2023-08-21T07:42:24;4.88;;;1.70;;
54125;SDS011;40360;52.992;6.796;2023-08-21T07:44:50;3.75;;;1.85;;
54125;SDS011;40360;52.992;6.796;2023-08-21T07:47:16;4.05;;;1.45;;
54125;SDS011;40360;52.992;6.796;2023-08-21T07:49:41;4.68;;;1.98;;
54125;SDS011;40360;52.992;6.796;2023-08-21T07:52:07;5.93;;;2.72;;
54125;SDS011;40360;52.992;6.796;2023-08-21T07:54:33;3.30;;;1.60;;
54125;SDS011;40360;52.992;6.796;2023-08-21T07:56:59;4.75;;;1.80;;
54125;SDS011;40360;52.992;6.796;2023-08-21T07:59:25;5.10;;;1.40;;
54125;SDS011;40360;52.992;6.796;2023-08-21T08:01:51;5.18;;;1.60;;
54125;SDS011;40360;52.992;6.796;2023-08-21T08:04:16;5.47;;;1.50;;
54125;SDS011;40360;52.992;6.796;2023-08-21T08:06:42;3.78;;;1.35;;
54125;SDS011;40360;52.992;6.796;2023-08-21T08:09:08;4.82;;;1.88;;
54125;SDS011;40360;52.992;6.796;2023-08-21T08:11:34;4.60;;;1.48;;
54125;SDS011;40360;52.992;6.796;2023-08-21T08:13:59;4.63;;;1.50;;
54125;SDS011;40360;52.992;6.796;2023-08-21T08:16:25;3.03;;;1.33;;
54125;SDS011;40360;52.992;6.796;2023-08-21T08:18:52;2.45;;;1.13;;
54125;SDS011;40360;52.992;6.796;2023-08-21T08:21:18;3.47;;;1.48;;
54125;SDS011;40360;52.992;6.796;2023-08-21T08:23:44;3.20;;;1.60;;
54125;SDS011;40360;52.992;6.796;2023-08-21T08:26:10;3.85;;;1.30;;
54125;SDS011;40360;52.992;6.796;2023-08-21T08:28:35;3.42;;;1.40;;
54125;SDS011;40360;52.992;6.796;2023-08-21T08:31:01;4.53;;;1.98;;
54125;SDS011;40360;52.992;6.796;2023-08-21T08:33:27;6.00;;;2.08;;
54125;SDS011;40360;52.992;6.796;2023-08-21T08:35:52;8.05;;;1.73;;
54125;SDS011;40360;52.992;6.796;2023-08-21T08:38:18;2.40;;;1.38;;
54125;SDS011;40360;52.992;6.796;2023-08-21T08:40:45;5.05;;;1.40;;
54125;SDS011;40360;52.992;6.796;2023-08-21T08:43:12;4.72;;;1.40;;
54125;SDS011;40360;52.992;6.796;2023-08-21T08:45:38;3.17;;;0.90;;
54125;SDS011;40360;52.992;6.796;2023-08-21T08:48:06;2.20;;;1.25;;
54125;SDS011;40360;52.992;6.796;2023-08-21T08:50:32;4.78;;;1.20;;
54125;SDS011;40360;52.992;6.796;2023-08-21T08:52:59;3.70;;;1.48;;
54125;SDS011;40360;52.992;6.796;2023-08-21T08:55:25;3.55;;;1.33;;
54125;SDS011;40360;52.992;6.796;2023-08-21T08:57:51;3.35;;;1.10;;
54125;SDS011;40360;52.992;6.796;2023-08-21T09:00:18;4.47;;;1.45;;
54125;SDS011;40360;52.992;6.796;2023-08-21T09:02:45;3.45;;;1.30;;
54125;SDS011;40360;52.992;6.796;2023-08-21T09:05:12;5.90;;;1.23;;
54125;SDS011;40360;52.992;6.796;2023-08-21T09:07:39;2.45;;;0.95;;
54125;SDS011;40360;52.992;6.796;2023-08-21T09:10:12;4.78;;;1.67;;
54125;SDS011;40360;52.992;6.796;2023-08-21T09:12:40;3.40;;;1.60;;
54125;SDS011;40360;52.992;6.796;2023-08-21T09:15:09;7.68;;;1.27;;
54125;SDS011;40360;52.992;6.796;2023-08-21T09:17:35;3.42;;;1.10;;
54125;SDS011;40360;52.992;6.796;2023-08-21T09:20:04;5.00;;;1.20;;
54125;SDS011;40360;52.992;6.796;2023-08-21T09:22:30;2.90;;;1.10;;
54125;SDS011;40360;52.992;6.796;2023-08-21T09:25:02;3.20;;;0.88;;
54125;SDS011;40360;52.992;6.796;2023-08-21T09:27:30;5.05;;;1.20;;
54125;SDS011;40360;52.992;6.796;2023-08-21T09:29:57;4.15;;;1.33;;
54125;SDS011;40360;52.992;6.796;2023-08-21T09:32:22;4.53;;;1.50;;
54125;SDS011;40360;52.992;6.796;2023-08-21T09:34:48;4.72;;;1.10;;
54125;SDS011;40360;52.992;6.796;2023-08-21T09:37:16;2.45;;;1.00;;
54125;SDS011;40360;52.992;6.796;2023-08-21T09:39:42;4.70;;;1.63;;
54125;SDS011;40360;52.992;6.796;2023-08-21T09:42:09;4.75;;;1.17;;
54125;SDS011;40360;52.992;6.796;2023-08-21T09:44:36;3.88;;;1.10;;
54125;SDS011;40360;52.992;6.796;2023-08-21T09:47:03;5.03;;;1.00;;
54125;SDS011;40360;52.992;6.796;2023-08-21T09:49:32;2.83;;;1.00;;
54125;SDS011;40360;52.992;6.796;2023-08-21T09:51:59;3.70;;;0.90;;
54125;SDS011;40360;52.992;6.796;2023-08-21T09:54:26;3.28;;;1.13;;
54125;SDS011;40360;52.992;6.796;2023-08-21T09:56:53;2.78;;;1.02;;
54125;SDS011;40360;52.992;6.796;2023-08-21T09:59:19;5.55;;;1.30;;
54125;SDS011;40360;52.992;6.796;2023-08-21T10:01:45;4.43;;;1.30;;
54125;SDS011;40360;52.992;6.796;2023-08-21T10:04:14;2.72;;;1.10;;
54125;SDS011;40360;52.992;6.796;2023-08-21T10:06:42;3.95;;;0.90;;
54125;SDS011;40360;52.992;6.796;2023-08-21T10:09:09;4.13;;;1.20;;
54125;SDS011;40360;52.992;6.796;2023-08-21T10:11:35;5.43;;;1.25;;
54125;SDS011;40360;52.992;6.796;2023-08-21T10:14:01;6.28;;;1.55;;
54125;SDS011;40360;52.992;6.796;2023-08-21T10:16:27;5.32;;;1.33;;
54125;SDS011;40360;52.992;6.796;2023-08-21T10:18:53;3.10;;;1.00;;
54125;SDS011;40360;52.992;6.796;2023-08-21T10:21:20;3.53;;;1.23;;
54125;SDS011;40360;52.992;6.796;2023-08-21T10:23:48;2.97;;;0.80;;
54125;SDS011;40360;52.992;6.796;2023-08-21T10:26:15;4.43;;;1.42;;
54125;SDS011;40360;52.992;6.796;2023-08-21T10:33:51;6.22;;;1.73;;
54125;SDS011;40360;52.992;6.796;2023-08-21T10:39:16;3.72;;;1.20;;
54125;SDS011;40360;52.992;6.796;2023-08-21T10:49:53;2.35;;;0.93;;
54125;SDS011;40360;52.992;6.796;2023-08-21T10:52:22;3.17;;;1.35;;
54125;SDS011;40360;52.992;6.796;2023-08-21T10:54:55;2.03;;;0.88;;
54125;SDS011;40360;52.992;6.796;2023-08-21T10:57:25;2.15;;;1.17;;
54125;SDS011;40360;52.992;6.796;2023-08-21T11:00:03;3.00;;;1.10;;
54125;SDS011;40360;52.992;6.796;2023-08-21T11:02:30;5.07;;;2.07;;
54125;SDS011;40360;52.992;6.796;2023-08-21T11:04:58;2.30;;;0.73;;
54125;SDS011;40360;52.992;6.796;2023-08-21T11:07:27;4.75;;;1.60;;
54125;SDS011;40360;52.992;6.796;2023-08-21T11:09:53;3.42;;;0.90;;
54125;SDS011;40360;52.992;6.796;2023-08-21T11:12:19;9.93;;;1.75;;
54125;SDS011;40360;52.992;6.796;2023-08-21T11:14:47;3.97;;;1.27;;
54125;SDS011;40360;52.992;6.796;2023-08-21T11:17:13;2.80;;;0.90;;
54125;SDS011;40360;52.992;6.796;2023-08-21T11:19:40;4.57;;;1.20;;
54125;SDS011;40360;52.992;6.796;2023-08-21T11:22:07;3.20;;;1.00;;
54125;SDS011;40360;52.992;6.796;2023-08-21T11:24:43;4.03;;;1.00;;
54125;SDS011;40360;52.992;6.796;2023-08-21T11:27:13;2.38;;;0.80;;
54125;SDS011;40360;52.992;6.796;2023-08-21T11:29:42;1.65;;;0.90;;
54125;SDS011;40360;52.992;6.796;2023-08-21T11:32:15;4.70;;;1.05;;
54125;SDS011;40360;52.992;6.796;2023-08-21T11:34:47;4.03;;;0.90;;
54125;SDS011;40360;52.992;6.796;2023-08-21T11:37:17;2.72;;;1.02;;
54125;SDS011;40360;52.992;6.796;2023-08-21T11:39:45;3.45;;;0.90;;
54125;SDS011;40360;52.992;6.796;2023-08-21T11:42:16;3.00;;;1.30;;
54125;SDS011;40360;52.992;6.796;2023-08-21T11:44:50;3.03;;;1.33;;
54125;SDS011;40360;52.992;6.796;2023-08-21T11:47:18;2.35;;;1.35;;
54125;SDS011;40360;52.992;6.796;2023-08-21T11:49:45;3.83;;;1.15;;
54125;SDS011;40360;52.992;6.796;2023-08-21T11:52:19;2.30;;;0.90;;
54125;SDS011;40360;52.992;6.796;2023-08-21T11:54:47;1.48;;;0.90;;
54125;SDS011;40360;52.992;6.796;2023-08-21T11:57:14;1.50;;;0.98;;
54125;SDS011;40360;52.992;6.796;2023-08-21T11:59:41;1.75;;;1.05;;
54125;SDS011;40360;52.992;6.796;2023-08-21T12:02:17;5.00;;;1.10;;
54125;SDS011;40360;52.992;6.796;2023-08-21T12:04:51;5.40;;;1.20;;
54125;SDS011;40360;52.992;6.796;2023-08-21T12:07:25;2.97;;;0.98;;
54125;SDS011;40360;52.992;6.796;2023-08-21T12:09:51;4.85;;;1.30;;
54125;SDS011;40360;52.992;6.796;2023-08-21T12:12:17;3.80;;;1.42;;
54125;SDS011;40360;52.992;6.796;2023-08-21T12:14:43;2.17;;;1.00;;
54125;SDS011;40360;52.992;6.796;2023-08-21T12:17:09;3.67;;;1.45;;
54125;SDS011;40360;52.992;6.796;2023-08-21T12:19:34;3.80;;;1.52;;
54125;SDS011;40360;52.992;6.796;2023-08-21T12:22:01;3.45;;;1.30;;
54125;SDS011;40360;52.992;6.796;2023-08-21T12:24:27;3.80;;;1.65;;
54125;SDS011;40360;52.992;6.796;2023-08-21T12:26:53;3.95;;;1.75;;
54125;SDS011;40360;52.992;6.796;2023-08-21T12:29:19;3.53;;;1.10;;
54125;SDS011;40360;52.992;6.796;2023-08-21T12:31:45;3.53;;;1.70;;
54125;SDS011;40360;52.992;6.796;2023-08-21T12:34:11;1.40;;;1.30;;
54125;SDS011;40360;52.992;6.796;2023-08-21T12:36:37;4.68;;;1.73;;
54125;SDS011;40360;52.992;6.796;2023-08-21T12:39:03;3.75;;;1.60;;
54125;SDS011;40360;52.992;6.796;2023-08-21T12:41:30;5.90;;;1.50;;
54125;SDS011;40360;52.992;6.796;2023-08-21T12:43:56;3.17;;;1.30;;
54125;SDS011;40360;52.992;6.796;2023-08-21T12:46:22;4.18;;;0.95;;
54125;SDS011;40360;52.992;6.796;2023-08-21T12:48:48;1.80;;;1.20;;
54125;SDS011;40360;52.992;6.796;2023-08-21T12:51:13;3.25;;;1.33;;
54125;SDS011;40360;52.992;6.796;2023-08-21T12:53:39;4.05;;;1.40;;
54125;SDS011;40360;52.992;6.796;2023-08-21T12:56:05;2.22;;;1.00;;
54125;SDS011;40360;52.992;6.796;2023-08-21T12:58:31;3.47;;;1.52;;
54125;SDS011;40360;52.992;6.796;2023-08-21T13:00:58;4.25;;;1.48;;
54125;SDS011;40360;52.992;6.796;2023-08-21T13:03:24;3.35;;;0.98;;
54125;SDS011;40360;52.992;6.796;2023-08-21T13:05:49;4.20;;;1.27;;
54125;SDS011;40360;52.992;6.796;2023-08-21T13:08:15;3.60;;;1.60;;
54125;SDS011;40360;52.992;6.796;2023-08-21T13:10:41;4.43;;;1.80;;
54125;SDS011;40360;52.992;6.796;2023-08-21T13:13:07;3.95;;;1.58;;
54125;SDS011;40360;52.992;6.796;2023-08-21T13:15:33;4.78;;;1.70;;
54125;SDS011;40360;52.992;6.796;2023-08-21T13:17:58;1.60;;;1.10;;
54125;SDS011;40360;52.992;6.796;2023-08-21T13:20:24;3.83;;;1.40;;
54125;SDS011;40360;52.992;6.796;2023-08-21T13:22:50;5.53;;;1.90;;
54125;SDS011;40360;52.992;6.796;2023-08-21T13:25:21;2.90;;;1.77;;
54125;SDS011;40360;52.992;6.796;2023-08-21T13:27:49;3.05;;;1.40;;
54125;SDS011;40360;52.992;6.796;2023-08-21T13:30:16;4.78;;;1.48;;
54125;SDS011;40360;52.992;6.796;2023-08-21T13:32:42;3.88;;;1.33;;
54125;SDS011;40360;52.992;6.796;2023-08-21T13:35:08;2.05;;;1.08;;
54125;SDS011;40360;52.992;6.796;2023-08-21T13:37:37;3.92;;;1.52;;
54125;SDS011;40360;52.992;6.796;2023-08-21T13:40:04;3.28;;;1.58;;
54125;SDS011;40360;52.992;6.796;2023-08-21T13:42:39;3.95;;;1.20;;
54125;SDS011;40360;52.992;6.796;2023-08-21T13:45:15;3.15;;;1.25;;
54125;SDS011;40360;52.992;6.796;2023-08-21T13:47:46;3.95;;;1.40;;
54125;SDS011;40360;52.992;6.796;2023-08-21T13:50:13;4.07;;;1.55;;
54125;SDS011;40360;52.992;6.796;2023-08-21T13:52:40;2.53;;;1.23;;
54125;SDS011;40360;52.992;6.796;2023-08-21T13:55:07;4.30;;;1.55;;
54125;SDS011;40360;52.992;6.796;2023-08-21T13:57:38;4.07;;;1.45;;
54125;SDS011;40360;52.992;6.796;2023-08-21T14:00:05;2.40;;;0.93;;
54125;SDS011;40360;52.992;6.796;2023-08-21T14:02:37;3.53;;;1.45;;
54125;SDS011;40360;52.992;6.796;2023-08-21T14:05:03;2.17;;;0.90;;
54125;SDS011;40360;52.992;6.796;2023-08-21T14:07:30;3.53;;;1.50;;
54125;SDS011;40360;52.992;6.796;2023-08-21T14:09:56;3.63;;;1.30;;
54125;SDS011;40360;52.992;6.796;2023-08-21T14:12:21;3.20;;;1.10;;
54125;SDS011;40360;52.992;6.796;2023-08-21T14:14:47;2.05;;;1.00;;
54125;SDS011;40360;52.992;6.796;2023-08-21T14:17:13;2.90;;;1.10;;
54125;SDS011;40360;52.992;6.796;2023-08-21T14:19:39;4.10;;;1.20;;
54125;SDS011;40360;52.992;6.796;2023-08-21T14:22:05;2.40;;;0.93;;
54125;SDS011;40360;52.992;6.796;2023-08-21T14:24:31;4.75;;;1.20;;
54125;SDS011;40360;52.992;6.796;2023-08-21T14:26:57;2.67;;;1.20;;
54125;SDS011;40360;52.992;6.796;2023-08-21T14:29:23;4.13;;;0.90;;
54125;SDS011;40360;52.992;6.796;2023-08-21T14:31:49;4.07;;;0.95;;
54125;SDS011;40360;52.992;6.796;2023-08-21T14:34:18;1.50;;;0.80;;
54125;SDS011;40360;52.992;6.796;2023-08-21T14:36:45;4.28;;;1.00;;
54125;SDS011;40360;52.992;6.796;2023-08-21T14:39:11;3.55;;;1.30;;
54125;SDS011;40360;52.992;6.796;2023-08-21T14:41:42;2.42;;;1.08;;
54125;SDS011;40360;52.992;6.796;2023-08-21T14:44:08;3.05;;;0.90;;
54125;SDS011;40360;52.992;6.796;2023-08-21T14:46:36;4.15;;;1.38;;
54125;SDS011;40360;52.992;6.796;2023-08-21T14:49:02;2.03;;;1.10;;
54125;SDS011;40360;52.992;6.796;2023-08-21T14:51:27;3.20;;;1.33;;
54125;SDS011;40360;52.992;6.796;2023-08-21T14:53:53;5.70;;;1.35;;
54125;SDS011;40360;52.992;6.796;2023-08-21T14:56:20;2.75;;;1.25;;
54125;SDS011;40360;52.992;6.796;2023-08-21T14:58:46;5.18;;;1.55;;
54125;SDS011;40360;52.992;6.796;2023-08-21T15:01:12;3.75;;;1.42;;
54125;SDS011;40360;52.992;6.796;2023-08-21T15:03:38;3.45;;;1.52;;
54125;SDS011;40360;52.992;6.796;2023-08-21T15:06:04;3.45;;;1.25;;
54125;SDS011;40360;52.992;6.796;2023-08-21T15:08:30;4.53;;;1.05;;
54125;SDS011;40360;52.992;6.796;2023-08-21T15:10:56;2.50;;;1.20;;
54125;SDS011;40360;52.992;6.796;2023-08-21T15:13:22;2.90;;;1.02;;
54125;SDS011;40360;52.992;6.796;2023-08-21T15:15:47;5.30;;;1.48;;
54125;SDS011;40360;52.992;6.796;2023-08-21T15:18:13;4.85;;;1.40;;
54125;SDS011;40360;52.992;6.796;2023-08-21T15:20:38;2.90;;;1.20;;
54125;SDS011;40360;52.992;6.796;2023-08-21T15:23:04;4.93;;;1.42;;